This is the latest recevied weather packets stored in our database for station/object KB8DOA. If no packets are shown the sender has not sent any weather packets the latest 10 day(s).
| Time | Temp. | Humidity | Pressure | Rain* | Wind** | Luminosity | Snow |
|---|---|---|---|---|---|---|---|
| 1777445404 | 22.78° C | 85% | 1015.6 hPa | 0 mm | - | 0 W/m² | - |
| 1777441504 | 22.78° C | 83% | 1017 hPa | 0 mm | - | 0 W/m² | - |
| 1777437004 | 24.44° C | 75% | 1015.1 hPa | 0 mm | - | 0 W/m² | - |
| 1777433404 | 25° C | 75% | 1015.4 hPa | 0 mm | - | 0 W/m² | - |
| 1777431905 | 25° C | 75% | 1015.7 hPa | 0 mm | - | 0 W/m² | - |
| 1777431604 | 25° C | 75% | 1015.8 hPa | 0 mm | - | 0 W/m² | - |
| 1777429504 | 25° C | 74% | 1015.7 hPa | 0 mm | - | 0 W/m² | - |
| 1777427404 | 25° C | 75% | 1016 hPa | 0 mm | - | 0 W/m² | - |
| 1777427105 | 25° C | 75% | 1015.9 hPa | 0 mm | - | 0 W/m² | - |
| 1777426504 | 25° C | 74% | 1015.8 hPa | 0 mm | - | 0 W/m² | - |
| 1777424705 | 25.56° C | 73% | 1015.3 hPa | 0 mm | - | 0 W/m² | - |
| 1777423503 | 25.56° C | 72% | 1015.1 hPa | 0 mm | - | 0 W/m² | - |
| 1777421104 | 25.56° C | 74% | 1015 hPa | 0 mm | - | 0 W/m² | - |
| 1777420804 | 25.56° C | 74% | 1015 hPa | 0 mm | - | 0 W/m² | - |
| 1777419004 | 25.56° C | 73% | 1014.6 hPa | 0 mm | - | 0 W/m² | - |
| 1777418104 | 26.11° C | 72% | 1014.3 hPa | 0 mm | - | 0 W/m² | - |
| 1777414804 | 26.67° C | 69% | 1014.8 hPa | 0 mm | - | 0 W/m² | - |
| 1777413604 | 26.67° C | 69% | 1014.7 hPa | 0 mm | - | 0 W/m² | - |
| 1777413304 | 26.67° C | 70% | 1014.6 hPa | 0 mm | - | 0 W/m² | - |
| 1777413003 | 26.67° C | 71% | 1014 hPa | 0 mm | - | 0 W/m² | - |
| 1777411803 | 26.67° C | 70% | 1014 hPa | 0 mm | - | 0 W/m² | - |
| 1777405804 | 27.22° C | 66% | 1015.4 hPa | 0 mm | - | 0 W/m² | - |
| 1777401004 | 27.22° C | 68% | 1015.9 hPa | 0 mm | - | 0 W/m² | - |
| 1777400704 | 27.22° C | 67% | 1016.8 hPa | 0 mm | - | 0 W/m² | - |
| 1777396503 | 26.67° C | 71% | 1016 hPa | 0 mm | - | 1304 W/m² | - |
* Rain latest hour (hover to see other rain measurements)
** Current wind speed in m/s (hover to see current wind gust speed)